METAR stanice u blizini

 

LYNI - Nis, Yugoslavia
Distance from station: JZ 40km
Ažurirano: 12/07/2020 21:30
Pretežno oblačno
Pretežno oblačno
 Pravac vetra varies
Vetar: varies 2 km/h
Temperatura: 17°C
Tačka rose: 14°C
Vlažnost: 83%
Pritisak: 1021 hPa
Oblaci: Pretežno oblačno
Vidljivost: 10 km
Cloud details: Delimično oblačno 610 m
Pretežno oblačno 1006 m
Pretežno oblačno 1524 m
2020/07/12 19:30 LYNI 121930Z VRB01KT 9999 SCT020 BKN033 BKN050 17/14 Q1021 NOSIG
LYKV - Kraljevo, Yugoslavia
Distance from station: ZSZ 136km
Ažurirano: 12/07/2020 21:30
Pretežno oblačno
Pretežno oblačno
 Pravac vetra varies
Vetar: varies 2 km/h
Temperatura: 18°C
Tačka rose: 16°C
Vlažnost: 88%
Pritisak: 1022 hPa
Oblaci: Pretežno oblačno
Vidljivost: 10 km
Cloud details: Pretežno oblačno 1219 m
2020/07/12 19:30 LYKV 121930Z VRB01KT 9999 BKN040 18/16 Q1022 NOSIG
LBSF - Sofia (observato, Bulgaria
Distance from station: JI 138km
Ažurirano: 12/07/2020 21:30
Oblačno
Oblačno
 Pravac vetra Z
Vetar: Z 30 km/h
Temperatura: 17°C
Tačka rose: 12°C
Vlažnost: 73%
Pritisak: 1020 hPa
Oblaci: Oblačno
Vidljivost: 10 km
Cloud details: Pretežno oblačno 732 m
Oblačno 914 m
2020/07/12 19:30 LBSF 121930Z 28016KT 9999 BKN024 OVC030 17/12 Q1020 NOSIG
 
BKPR - Prishtina, Yugoslavia
Distance from station: JZ 147km
Ažurirano: 12/07/2020 21:30
Pretežno oblačno
Pretežno oblačno
 Pravac vetra SSI
Vetar: SSI 15 km/h
Temperatura: 17°C
Tačka rose: 10°C
Vlažnost: 64%
Pritisak: 1022 hPa
Oblaci: Pretežno oblačno
Vidljivost: 10 km
Cloud details: Pretežno oblačno 914 m
2020/07/12 19:30 BKPR 121930Z 03008KT 9999 BKN030 17/10 Q1022 NOSIG
LRCV - Craiova, Romania
Distance from station: SI 154km
Ažurirano: 12/07/2020 20:30
Vedro
Vedro
 Pravac vetra Z
Vetar: Z 24 km/h
Temperatura: 19°C
Tačka rose: 12°C
Vlažnost: 64%
Pritisak: 1015 hPa
Pregled: Vedro
Vidljivost: greater than 10 km
2020/07/12 18:30 LRCV 121830Z 26013KT CAVOK 19/12 Q1015
LWSK - Skopje/Petrovac, Macedonia
Distance from station: JJZ 185km
Ažurirano: 12/07/2020 21:30
Delimično oblačno
Delimično oblačno
 Pravac vetra S
Vetar: S 28 km/h
Temperatura: 20°C
Tačka rose: 13°C
Vlažnost: 64%
Pritisak: 1019 hPa
Oblaci: Delimično oblačno
Vidljivost: 10 km
Cloud details: Delimično oblačno 1311 m
2020/07/12 19:30 LWSK 121930Z 36015KT 9999 SCT043 20/13 Q1019 NOSIG
 
LYVR - Vrsac, Yugoslavia
Distance from station: SSZ 189km
Ažurirano: 12/07/2020 21:30
Vedro
Vedro
 Pravac vetra SSI
Vetar: SSI 7 km/h
Temperatura: 15°C
Tačka rose: 12°C
Vlažnost: 82%
Pritisak: 1022 hPa
Pregled: Vedro
Vidljivost: greater than 10 km
2020/07/12 19:30 LYVR 121930Z AUTO 03004KT CAVOK 15/12 Q1022
LYUZ - Uzice-Ponikve, Yugoslavia
Distance from station: Z 207km
Ažurirano: 12/07/2020 21:30
Oblačno
Oblačno
 Pravac vetra SZ
Vetar: SZ 7 km/h
Temperatura: 13°C
Tačka rose: 12°C
Vlažnost: 94%
Pritisak: 1024 hPa
Oblaci: Oblačno
Vidljivost: 10 km
Cloud details: Oblačno 975 m
2020/07/12 19:30 LYUZ 121930Z AUTO 32004KT 290V360 9999 OVC032/// 13/12 Q1024
LYBE - Belgrade/Surcin, Yugoslavia
Distance from station: SZ 209km
Ažurirano: 12/07/2020 21:30
Vedro
Vedro
 Pravac vetra SSI
Vetar: SSI 6 km/h
Temperatura: 17°C
Tačka rose: 12°C
Vlažnost: 73%
Pritisak: 1023 hPa
Pregled: Vedro
Vidljivost: greater than 10 km
2020/07/12 19:30 LYBE 121930Z 02003KT CAVOK 17/12 Q1023 NOSIG
 
LYBT - Batajnica, Yugoslavia
Distance from station: SZ 219km
Ažurirano: 12/07/2020 21:30
Vedro
Vedro
 Pravac vetra SSZ
Vetar: SSZ 6 km/h
Temperatura: 16°C
Tačka rose: 12°C
Vlažnost: 77%
Pritisak: 1022 hPa
Pregled: Vedro
Vidljivost: greater than 10 km
2020/07/12 19:30 LYBT 121930Z 33003KT CAVOK 16/12 Q1022 NOSIG
LRTR - Timisoara/Giarma, Romania
Distance from station: SSZ 260km
Ažurirano: 12/07/2020 21:30
Vedro
Vedro
 Pravac vetra SSZ
Vetar: SSZ 7 km/h
Temperatura: 14°C
Tačka rose: 13°C
Vlažnost: 94%
Pritisak: 1022 hPa
Pregled: Vedro
Vidljivost: greater than 10 km
2020/07/12 19:30 LRTR 121930Z 33004KT CAVOK 14/13 Q1022
LBPD - Plovdiv, Bulgaria
Distance from station: JI 263km
Ažurirano: 12/07/2020 21:30
Pretežno oblačno
Pretežno oblačno
 Pravac vetra ZSZ
Vetar: ZSZ 31 km/h
Temperatura: 25°C
Tačka rose: 15°C
Vlažnost: 54%
Pritisak: 1014 hPa
Oblaci: Pretežno oblačno
Vidljivost: 10 km
Cloud details: Pretežno oblačno 1859 m
2020/07/12 19:30 LBPD 121930Z AUTO 29017KT 9999 BKN061 25/15 Q1014
 
LYPG - Podgorica(Titogr, Yugoslavia
Distance from station: ZJZ 278km
Ažurirano: 12/07/2020 21:30
Vedro
Vedro
 Pravac vetra SSI
Vetar: SSI 28 km/h
Temperatura: 26°C
Tačka rose: 12°C
Vlažnost: 42%
Pritisak: 1015 hPa
Pregled: Vedro
Vidljivost: greater than 10 km
2020/07/12 19:30 LYPG 121930Z 02015KT 350V050 CAVOK 26/12 Q1015 NOSIG
LBGO - Gorna Orechovist, Bulgaria
Distance from station: I 285km
Ažurirano: 12/07/2020 21:30
Vedro
Vedro
 Pravac vetra SZ
Vetar: SZ 22 km/h
Temperatura: 22°C
Tačka rose: 13°C
Vlažnost: 57%
Pritisak: 1016 hPa
Oblaci: Vedro
Vidljivost: 10 km
2020/07/12 19:30 LBGO 121930Z AUTO 32012KT 9999 NCD 22/13 Q1016
LRSB - Sibiu/Turnisor, Romania
Distance from station: SSI 286km
Ažurirano: 12/07/2020 21:30
Pretežno oblačno
Pretežno oblačno
 Pravac vetra S
Vetar: S 19 km/h
Temperatura: 14°C
Tačka rose: 13°C
Vlažnost: 94%
Pritisak: 1021 hPa
Oblaci: Pretežno oblačno
Vidljivost: 10 km
Cloud details: Few Clouds 366 m
Delimično oblačno 610 m
Pretežno oblačno 914 m
2020/07/12 19:30 LRSB 121930Z 01010KT 9999 FEW012 SCT020 BKN030 14/13 Q1021
 
LWOH - Ohrid, Macedonia
Distance from station: JJZ 292km
Ažurirano: 12/07/2020 20:00
NOT Current
Few Clouds
Few Clouds
 Pravac vetra calm
Vetar: Tišina
Temperatura: 21°C
Tačka rose: 18°C
Vlažnost: 83%
Pritisak: 1017 hPa
Oblaci: Few Clouds
Vidljivost: 10 km
Cloud details: Few Clouds 1829 m
2020/07/12 18:00 LWOH 121800Z 00000KT 9999 FEW060 21/18 Q1017
LQTZ - Tuzla, Yugoslavia
Distance from station: ZSZ 298km
Ažurirano: 12/07/2020 21:30
Pretežno oblačno
Pretežno oblačno
 Pravac vetra varies
Vetar: varies 4 km/h
Temperatura: 17°C
Tačka rose: 11°C
Vlažnost: 68%
Pritisak: 1023 hPa
Oblaci: Pretežno oblačno
Vidljivost: 10 km
Cloud details: Pretežno oblačno 1219 m
2020/07/12 19:30 LQTZ 121930Z VRB02KT 9999 BKN040 17/11 Q1023
LRAR - Arad, Romania
Distance from station: SSZ 301km
Ažurirano: 12/07/2020 21:30
Vedro
Vedro
 Pravac vetra SSZ
Vetar: SSZ 6 km/h
Temperatura: 14°C
Tačka rose: 12°C
Vlažnost: 88%
Pritisak: 1022 hPa
Pregled: Vedro
Vidljivost: greater than 10 km
2020/07/12 19:30 LRAR 121930Z 34003KT CAVOK 14/12 Q1022
 
LYTV - Tivat, Yugoslavia
Distance from station: ZJZ 315km
Ažurirano: 12/07/2020 21:30
Vedro
Vedro
 Pravac vetra varies
Vetar: varies 15 km/h
Temperatura: 28°C
Tačka rose: 12°C
Vlažnost: 37%
Pritisak: 1013 hPa
Pregled: Vedro
Vidljivost: greater than 10 km
2020/07/12 19:30 LYTV 121930Z VRB08KT CAVOK 28/12 Q1013 NOSIG
LATI - Tirana, Albania
Distance from station: JZ 316km
Ažurirano: 12/07/2020 21:20
Vedro
Vedro
 Pravac vetra SSZ
Vetar: SSZ 6 km/h
Temperatura: 25°C
Tačka rose: 20°C
Vlažnost: 74%
Pritisak: 1014 hPa
Pregled: Vedro
Vidljivost: greater than 10 km
2020/07/12 19:20 LATI 121920Z 34003KT CAVOK 25/20 Q1014 NOSIG
LQBK - Banja Luka, Yugoslavia
Distance from station: SZ 426km
Ažurirano: 12/07/2020 21:30
Vedro
Vedro
 Pravac vetra ZSZ
Vetar: ZSZ 7 km/h
Temperatura: 17°C
Tačka rose: 12°C
Vlažnost: 73%
Pritisak: 1024 hPa
Pregled: Vedro
Vidljivost: greater than 10 km
2020/07/12 19:30 LQBK 121930Z 30004KT CAVOK 17/12 Q1024 NOSIG
 
LDOS - Osijek, Croatia
Distance from station: SSZ 360km
Ažurirano: 12/07/2020 21:30
Vedro
Vedro
 Pravac vetra SI
Vetar: SI 6 km/h
Temperatura: 16°C
Tačka rose: 12°C
Vlažnost: 77%
Pritisak: 1023 hPa
Pregled: Vedro
Vidljivost: greater than 10 km
2020/07/12 19:30 LDOS 121930Z 04003KT CAVOK 16/12 Q1023
LDDU - Dubrovnik-Cilipi, Croatia
Distance from station: JZ 352km
Ažurirano: 12/07/2020 21:30
Vedro
Vedro
 Pravac vetra SSI
Vetar: SSI 35 km/h, Maks.: 63 km/h
Temperatura: 25°C
Tačka rose: 12°C
Vlažnost: 44%
Pritisak: 1014 hPa
Pregled: Vedro
Vidljivost: greater than 10 km
2020/07/12 19:30 LDDU 121930Z 02019G34KT 330V080 CAVOK 25/12 Q1014 NOSIG
LQMO - Mostar Airport, Bosnia-Herzegovina
Distance from station: Z 359km
Ažurirano: 12/07/2020 21:00
Vedro
Vedro
 Pravac vetra S
Vetar: S 28 km/h, Maks.: 54 km/h
Temperatura: 24°C
Tačka rose: 10°C
Vlažnost: 41%
Pritisak: 1015 hPa
Pregled: Vedro
Vidljivost: greater than 10 km
2020/07/12 19:00 LQMO 121900Z 01015G29KT CAVOK 24/10 Q1015
 
LQSA - Sarajevo/Butmir, Yugoslavia
Distance from station: Z 311km
Ažurirano: 12/07/2020 21:30
Pretežno oblačno
Pretežno oblačno
 Pravac vetra SSZ
Vetar: SSZ 6 km/h
Temperatura: 18°C
Tačka rose: 10°C
Vlažnost: 60%
Pritisak: 1024 hPa
Oblaci: Pretežno oblačno
Vidljivost: 10 km
Cloud details: Pretežno oblačno 1524 m
2020/07/12 19:30 LQSA 121930Z 34003KT 310V020 9999 BKN050 18/10 Q1024 NOSIG
LDSP - Split/Kastel Sta, Croatia
Distance from station: Z 468km
Ažurirano: 12/07/2020 21:30
Vedro
Vedro
 Pravac vetra SI
Vetar: SI 35 km/h, Maks.: 56 km/h
Temperatura: 24°C
Tačka rose: 8°C
Vlažnost: 36%
Pritisak: 1017 hPa
Pregled: Vedro
Vidljivost: greater than 10 km
2020/07/12 19:30 LDSP 121930Z 04019G30KT CAVOK 24/08 Q1017 NOSIG
LDZD - Zadar/Zemunik, Croatia
Distance from station: ZSZ 567km
Ažurirano: 12/07/2020 21:30
Vedro
Vedro
 Pravac vetra ISI
Vetar: ISI 17 km/h
Temperatura: 20°C
Tačka rose: 8°C
Vlažnost: 46%
Pritisak: 1019 hPa
Pregled: Vedro
Vidljivost: greater than 10 km
2020/07/12 19:30 LDZD 121930Z 06009KT CAVOK 20/08 Q1019 NOSIG
 
LDZA - Zagreb/Pleso, Croatia
Distance from station: SZ 555km
Ažurirano: 12/07/2020 21:30
Vedro
Vedro
 Pravac vetra SSI
Vetar: SSI 6 km/h
Temperatura: 18°C
Tačka rose: 9°C
Vlažnost: 56%
Pritisak: 1024 hPa
Pregled: Vedro
Vidljivost: greater than 10 km
2020/07/12 19:30 LDZA 121930Z 03003KT 360V060 CAVOK 18/09 Q1024 NOSIG
LJCE - Cerklje, Slovenia
Distance from station: SZ 680km
Ažurirano: 12/07/2020 21:30
Vedro
Vedro
 Pravac vetra varies
Vetar: varies 2 km/h
Temperatura: 16°C
Tačka rose: 11°C
Vlažnost: 72%
Pritisak: 1024 hPa
Oblaci: Vedro
Vidljivost: 10 km
2020/07/12 19:30 LJCE 121930Z AUTO VRB01KT 9999 NCD 16/11 Q1024
LJMB - Maribor, Slovenia
Distance from station: SZ 616km
Ažurirano: 12/07/2020 21:30
Vedro
Vedro
 Pravac vetra SZ
Vetar: SZ 6 km/h
Temperatura: 15°C
Tačka rose: 10°C
Vlažnost: 72%
Pritisak: 1025 hPa
Pregled: Vedro
Vidljivost: greater than 10 km
2020/07/12 19:30 LJMB 121930Z 32003KT CAVOK 15/10 Q1025
 
LJLJ - Ljubljana/Brnik, Slovenia
Distance from station: SZ 671km
Ažurirano: 12/07/2020 21:30
Few Clouds
Few Clouds
 Pravac vetra I
Vetar: I 15 km/h
Temperatura: 18°C
Tačka rose: 8°C
Vlažnost: 52%
Pritisak: 1024 hPa
Oblaci: Few Clouds
Vidljivost: 10 km
Cloud details: Few Clouds 1829 m
2020/07/12 19:30 LJLJ 121930Z 10008KT 9999 FEW060 18/08 Q1024 NOSIG
LDRI - Rijeka, Croatia
Distance from station: SZ 650km
Ažurirano: 12/07/2020 21:30
Vedro
Vedro
 Pravac vetra JJI
Vetar: JJI 19 km/h
Temperatura: 22°C
Tačka rose: 5°C
Vlažnost: 33%
Pritisak: 1021 hPa
Pregled: Vedro
Vidljivost: greater than 10 km
2020/07/12 19:30 LDRI 121930Z 15010KT 110V210 CAVOK 22/05 Q1021
LDPL - Pula, Croatia
Distance from station: ZSZ 686km
Ažurirano: 12/07/2020 21:30
Vedro
Vedro
 Pravac vetra ISI
Vetar: ISI 19 km/h
Temperatura: 21°C
Tačka rose: 8°C
Vlažnost: 43%
Pritisak: 1021 hPa
Pregled: Vedro
Vidljivost: greater than 10 km
2020/07/12 19:30 LDPL 121930Z 07010KT CAVOK 21/08 Q1021 NOSIG
 
LJPZ - Portorož, Slovenia
Distance from station: ZSZ 720km
Ažurirano: 12/07/2020 21:30
Vedro
Vedro
 Pravac vetra ISI
Vetar: ISI 7 km/h
Temperatura: 22°C
Tačka rose: 8°C
Vlažnost: 41%
Pritisak: 1021 hPa
Pregled: Vedro
Vidljivost: greater than 10 km
2020/07/12 19:30 LJPZ 121930Z 06004KT 030V100 CAVOK 22/08 Q1021